Terminal Aerodrome Forecast
Issued by NWS Riverton, WY

Home | Current Version | Previous Version | Text Only | Print | Product List | Glossary On
Versions: 1 2 3 4 5 6 7 8 9 10 11 12
238
FTUS45 KRIW 281125
TAFRIW
TAF
KRIW 281125Z 2812/2912 35010G20KT P6SM -RA SCT020 OVC035
      TEMPO 2812/2815 BKN022
     FM281500 36015G25KT P6SM -RA SCT020 OVC035
     FM281900 36018G28KT P6SM VCSH SCT030 BKN050
     FM290200 35009KT P6SM FEW040
     FM291000 VRB04KT P6SM VCFG SCT007=

USA.gov is the U.S. government's official web portal to all federal, state and local government web resources and services.